Apex, North Carolina
Current Conditions -  °F | °C
As of 4:51 PM on Friday 31 Oct 2014 (Local Time) from KRDU Reporting Station
Overcast Overcast  
Wind Chill: 58°   Ceiling: 5500
Heat Index: 58°   Visibility: 10mi
Dew Point: 41°   Wind: 5mph
Humidity: 53%   Direction: 30°NNE
Pressure: 29.83"   Gusts: NA
Location:  35.73°N, 78.84°W
Report Text: KRDU 312051Z 03004KT 10SM BKN055 OVC200 14/05 A2983 RMK AO2 SLP100 T01440050 56012
Loading
Personal Weather Stations






























Interactive Weather Map
Tropical Storm Tracking
New forecast layout! Learn more

10-Day Weather Forecast

Advertisements
Track Severe Weather on mobile